Time;durP1;ratioP1;P1;durP2;ratioP2;P2;SDS_P1;SDS_P2;PMS_P1;PMS_P2;Temp;Humidity;BMP_temperature;BMP_pressure;BME280_temperature;BME280_humidity;BME280_pressure;Samples;Min_cycle;Max_cycle;Signal;HPM_P1;HPM_P2
2021/08/29 00:09:47;;;;;;;17.4;5;;;;;;;13.86;100;98325.38;;;;
2021/08/29 00:19:46;;;;;;;9.5;5.4;;;;;;;13.79;100;98335.17;;;;
2021/08/29 00:29:45;;;;;;;8.1;5;;;;;;;13.68;100;98331.3;;;;
2021/08/29 00:39:45;;;;;;;8.3;4.8;;;;;;;13.7;100;98323.64;;;;
2021/08/29 00:49:44;;;;;;;8.6;7.3;;;;;;;13.7;100;98318.23;;;;
2021/08/29 00:59:44;;;;;;;7.9;4.6;;;;;;;13.7;100;98312.81;;;;
2021/08/29 01:09:43;;;;;;;6.5;4;;;;;;;13.68;100;98309.63;;;;
2021/08/29 01:19:42;;;;;;;8.7;5.6;;;;;;;13.55;100;98297.98;;;;
2021/08/29 01:29:42;;;;;;;17;5;;;;;;;13.51;100;98297.86;;;;
2021/08/29 01:39:41;;;;;;;6.7;4.2;;;;;;;13.48;100;98293.11;;;;
2021/08/29 01:49:40;;;;;;;9.7;6;;;;;;;13.54;100;98288.27;;;;
2021/08/29 01:59:40;;;;;;;8.6;4.7;;;;;;;13.37;100;98281.11;;;;
2021/08/29 02:09:39;;;;;;;7.7;3.9;;;;;;;13.33;100;98268.59;;;;
2021/08/29 02:19:38;;;;;;;6.8;3.7;;;;;;;13.26;100;98271.05;;;;
2021/08/29 02:29:37;;;;;;;6.7;4.1;;;;;;;13.22;100;98273.63;;;;
2021/08/29 02:39:37;;;;;;;7.9;4.3;;;;;;;13.35;100;98279.86;;;;
2021/08/29 02:49:36;;;;;;;6.9;4.9;;;;;;;13.3;100;98272.73;;;;
2021/08/29 02:59:35;;;;;;;7.3;4.5;;;;;;;13.16;100;98260.59;;;;
2021/08/29 03:09:35;;;;;;;9.3;5.1;;;;;;;13.12;100;98274;;;;
2021/08/29 03:19:34;;;;;;;9.2;5.6;;;;;;;13.16;100;98271.42;;;;
2021/08/29 03:29:33;;;;;;;10;6.2;;;;;;;13.25;100;98262.13;;;;
2021/08/29 03:39:33;;;;;;;6.9;4.8;;;;;;;13.24;100;98259.74;;;;
2021/08/29 03:49:32;;;;;;;8.9;5.9;;;;;;;13.24;100;98270.56;;;;
2021/08/29 03:59:31;;;;;;;8.7;6.4;;;;;;;13.17;100;98270.31;;;;
2021/08/29 04:09:30;;;;;;;7;4.5;;;;;;;13.17;100;98268.4;;;;
2021/08/29 04:19:30;;;;;;;6.7;4.9;;;;;;;13.1;100;98258.11;;;;
2021/08/29 04:29:29;;;;;;;9.1;5.9;;;;;;;13.06;100;98269.89;;;;
2021/08/29 04:39:28;;;;;;;7.7;5.7;;;;;;;13.15;100;98257.13;;;;
2021/08/29 04:49:28;;;;;;;10.4;7.3;;;;;;;13.36;100;98255.16;;;;
2021/08/29 04:59:27;;;;;;;9.3;5.5;;;;;;;13.49;100;98256;;;;
2021/08/29 05:19:26;;;;;;;10.7;7.5;;;;;;;13.66;100;98266.65;;;;
2021/08/29 05:29:25;;;;;;;10.8;8.7;;;;;;;13.87;100;98267.38;;;;
2021/08/29 05:39:25;;;;;;;10.5;8.1;;;;;;;13.95;100;98280.01;;;;
2021/08/29 05:49:24;;;;;;;21.3;10.6;;;;;;;14;100;98287.94;;;;
2021/08/29 05:59:24;;;;;;;7.1;5.4;;;;;;;14.11;100;98286.37;;;;
2021/08/29 06:09:23;;;;;;;8;6.6;;;;;;;14.3;100;98271.48;;;;
2021/08/29 06:19:23;;;;;;;7.8;5.6;;;;;;;14.4;100;98279.98;;;;
2021/08/29 06:29:22;;;;;;;6.1;4.3;;;;;;;14.75;100;98277.54;;;;
2021/08/29 06:39:22;;;;;;;7.9;5.1;;;;;;;14.86;100;98270.52;;;;
2021/08/29 06:49:21;;;;;;;8.4;5.5;;;;;;;14.82;100;98285.89;;;;
2021/08/29 06:59:21;;;;;;;8.5;7.6;;;;;;;14.93;100;98281.58;;;;
2021/08/29 07:09:21;;;;;;;9;8.1;;;;;;;15.06;100;98274.21;;;;
2021/08/29 07:19:20;;;;;;;12.8;7.3;;;;;;;15.31;100;98272.97;;;;
2021/08/29 07:29:20;;;;;;;13.2;9.7;;;;;;;15.7;100;98265.91;;;;
2021/08/29 07:39:20;;;;;;;11.2;8.6;;;;;;;16.05;100;98261.38;;;;
2021/08/29 07:49:19;;;;;;;13;10.3;;;;;;;16.25;100;98270.41;;;;
2021/08/29 07:59:19;;;;;;;20.6;15.9;;;;;;;16.53;100;98265.63;;;;
2021/08/29 08:09:19;;;;;;;15.9;14.2;;;;;;;16.54;100;98261.78;;;;
2021/08/29 08:19:19;;;;;;;21.3;15.6;;;;;;;17.37;100;98254.2;;;;
2021/08/29 08:29:19;;;;;;;15.5;13.9;;;;;;;17.47;100;98262.59;;;;
2021/08/29 08:39:19;;;;;;;13.5;10;;;;;;;18.02;100;98268.66;;;;
2021/08/29 08:49:19;;;;;;;11.1;8.3;;;;;;;17.84;100;98276.53;;;;
2021/08/29 08:59:19;;;;;;;9.8;7.3;;;;;;;17.78;100;98275.27;;;;
2021/08/29 09:09:19;;;;;;;11.2;7.7;;;;;;;18.24;100;98272.54;;;;
2021/08/29 09:19:19;;;;;;;11.4;8.5;;;;;;;18.69;100;98274.43;;;;
2021/08/29 09:29:21;;;;;;;14.3;8.9;;;;;;;18.87;100;98268.08;;;;
2021/08/29 09:39:19;;;;;;;10.5;7;;;;;;;19.19;100;98273.96;;;;
2021/08/29 09:49:19;;;;;;;9.7;6.9;;;;;;;18.43;100;98267.02;;;;
2021/08/29 09:59:19;;;;;;;7.4;4.1;;;;;;;18.65;100;98257.2;;;;
2021/08/29 10:09:20;;;;;;;7.8;4.8;;;;;;;18.33;100;98256.7;;;;
2021/08/29 10:19:20;;;;;;;8.3;5.9;;;;;;;18.73;100;98246.03;;;;
2021/08/29 10:29:20;;;;;;;7.7;5.5;;;;;;;18.56;100;98247.36;;;;
2021/08/29 10:39:20;;;;;;;8.9;5.6;;;;;;;18.66;100;98247.88;;;;
2021/08/29 10:49:22;;;;;;;4.4;2.6;;;;;;;18.93;100;98247.47;;;;
2021/08/29 10:59:21;;;;;;;5.9;2.5;;;;;;;18.67;100;98233.87;;;;
2021/08/29 11:09:21;;;;;;;6.8;3.3;;;;;;;18.41;100;98236.56;;;;
2021/08/29 11:29:39;;;;;;;9.1;5;;;;;;;18.55;100;98229.41;;;;
2021/08/29 11:39:36;;;;;;;6.5;4.3;;;;;;;18.42;100;98227.23;;;;
2021/08/29 11:49:22;;;;;;;6.8;4.3;;;;;;;18.99;100;98221.41;;;;
2021/08/29 11:59:22;;;;;;;7.8;4.3;;;;;;;19.19;100;98219.31;;;;
2021/08/29 12:09:25;;;;;;;7.4;4.1;;;;;;;19.37;100;98206.61;;;;
2021/08/29 12:19:23;;;;;;;8;4.8;;;;;;;18.97;100;98199.15;;;;
2021/08/29 12:29:23;;;;;;;6.4;3.9;;;;;;;19.99;100;98202.16;;;;
2021/08/29 12:39:24;;;;;;;6.3;4.6;;;;;;;20.42;100;98197.02;;;;
2021/08/29 12:49:24;;;;;;;10;5.2;;;;;;;20.39;100;98192.31;;;;
2021/08/29 12:59:25;;;;;;;5.6;3.7;;;;;;;20.93;100;98186.73;;;;
2021/08/29 13:09:25;;;;;;;8.2;5.2;;;;;;;20.74;100;98191.73;;;;
2021/08/29 13:19:26;;;;;;;5.7;3.4;;;;;;;19.76;100;98185.16;;;;
2021/08/29 13:29:26;;;;;;;9.3;4.7;;;;;;;20.54;100;98177.55;;;;
2021/08/29 13:39:26;;;;;;;4.9;3;;;;;;;20.31;100;98174.27;;;;
2021/08/29 13:49:27;;;;;;;4.2;2.3;;;;;;;20.01;100;98172.48;;;;
2021/08/29 13:59:27;;;;;;;5.2;3.2;;;;;;;20.32;100;98173.11;;;;
2021/08/29 14:09:29;;;;;;;3.4;2.1;;;;;;;20.24;100;98177.72;;;;
2021/08/29 14:19:28;;;;;;;4.6;2.6;;;;;;;20.21;100;98177.69;;;;
2021/08/29 14:29:30;;;;;;;4.8;3.2;;;;;;;20.14;100;98183.11;;;;
2021/08/29 14:39:29;;;;;;;4.7;2.6;;;;;;;19.95;100;98175.95;;;;
2021/08/29 14:49:30;;;;;;;6.3;3.2;;;;;;;19.44;100;98170.41;;;;
2021/08/29 14:59:30;;;;;;;6.6;3.9;;;;;;;19.19;100;98172.88;;;;
2021/08/29 15:09:30;;;;;;;4.7;2.5;;;;;;;18.5;100;98171.61;;;;
2021/08/29 15:19:31;;;;;;;4.6;2.4;;;;;;;17.96;100;98155.59;;;;
2021/08/29 15:29:31;;;;;;;4.3;2.5;;;;;;;17.69;100;98146.61;;;;
2021/08/29 15:39:34;;;;;;;4.4;2.2;;;;;;;17.58;100;98137.47;;;;
2021/08/29 15:49:32;;;;;;;4.5;2.2;;;;;;;17.13;100;98134.69;;;;
2021/08/29 15:59:31;;;;;;;7.8;2.4;;;;;;;16.68;100;98130.72;;;;
2021/08/29 16:09:31;;;;;;;4.6;2.1;;;;;;;16.49;100;98126.02;;;;
2021/08/29 16:19:31;;;;;;;3.9;2.2;;;;;;;16.36;100;98121.86;;;;
2021/08/29 16:29:31;;;;;;;4.6;2.5;;;;;;;16.16;100;98131.14;;;;
2021/08/29 16:39:31;;;;;;;3.5;2;;;;;;;16.2;100;98132.01;;;;
2021/08/29 16:49:30;;;;;;;11.8;3.1;;;;;;;16.07;100;98134.04;;;;
2021/08/29 16:59:30;;;;;;;8.3;4.9;;;;;;;15.9;100;98142.58;;;;
2021/08/29 17:09:30;;;;;;;5.1;2.9;;;;;;;15.83;100;98166.86;;;;
2021/08/29 17:19:29;;;;;;;17;12.3;;;;;;;15.78;100;98169.07;;;;
2021/08/29 17:29:29;;;;;;;20.6;16.1;;;;;;;15.57;100;98180.2;;;;
2021/08/29 17:39:32;;;;;;;22.5;18.8;;;;;;;15.51;100;98182.4;;;;
2021/08/29 17:49:28;;;;;;;18.1;11.8;;;;;;;15.36;100;98196.7;;;;
2021/08/29 17:59:28;;;;;;;16;10.6;;;;;;;15.35;100;98207.91;;;;
2021/08/29 18:09:27;;;;;;;7.3;5.7;;;;;;;15.28;100;98215.86;;;;
2021/08/29 18:19:27;;;;;;;17.5;13.4;;;;;;;15.17;100;98220.23;;;;
2021/08/29 18:29:26;;;;;;;10;7.3;;;;;;;15.08;100;98213.02;;;;
2021/08/29 18:39:26;;;;;;;13.6;7.7;;;;;;;15.03;100;98199.67;;;;
2021/08/29 18:49:26;;;;;;;8.3;7;;;;;;;14.98;100;98194.52;;;;
2021/08/29 18:59:25;;;;;;;13.4;8.1;;;;;;;14.91;100;98191.59;;;;
2021/08/29 19:09:25;;;;;;;7.1;5.9;;;;;;;14.67;100;98186.25;;;;
2021/08/29 19:19:24;;;;;;;8.8;7.1;;;;;;;14.69;100;98183.98;;;;
2021/08/29 19:29:24;;;;;;;8.1;5.8;;;;;;;14.6;100;98186.84;;;;
2021/08/29 19:39:23;;;;;;;9;5.5;;;;;;;14.68;100;98168.86;;;;
2021/08/29 19:49:23;;;;;;;5.9;4.8;;;;;;;14.55;100;98184.36;;;;
2021/08/29 19:59:22;;;;;;;7;3.8;;;;;;;14.54;100;98180.05;;;;
2021/08/29 20:09:22;;;;;;;7.1;5;;;;;;;14.54;100;98179.29;;;;
2021/08/29 20:19:21;;;;;;;6.3;3.6;;;;;;;14.36;100;98169.84;;;;
2021/08/29 20:29:22;;;;;;;5.8;3.6;;;;;;;14.39;100;98175.36;;;;
2021/08/29 20:39:20;;;;;;;9.8;4;;;;;;;14.37;100;98158.63;;;;
2021/08/29 20:49:20;;;;;;;9.2;5.3;;;;;;;14.3;100;98155.67;;;;
2021/08/29 20:59:19;;;;;;;6.9;4.1;;;;;;;14.39;100;98144.75;;;;
2021/08/29 21:09:19;;;;;;;8.4;5.4;;;;;;;14.48;100;98146.18;;;;
2021/08/29 21:19:18;;;;;;;7;5;;;;;;;14.27;100;98139.3;;;;
2021/08/29 21:29:18;;;;;;;6.4;3.9;;;;;;;14.35;100;98143.84;;;;
2021/08/29 21:39:17;;;;;;;7;4.3;;;;;;;14.19;100;98126.69;;;;
2021/08/29 21:49:17;;;;;;;6.2;5;;;;;;;14.11;100;98126.48;;;;
2021/08/29 21:59:16;;;;;;;11.1;5.9;;;;;;;13.99;100;98148.16;;;;
2021/08/29 22:09:16;;;;;;;9;5.9;;;;;;;14.08;100;98131.8;;;;
2021/08/29 22:19:15;;;;;;;7.4;4.2;;;;;;;14.05;100;98119.72;;;;
2021/08/29 22:29:15;;;;;;;9.1;7;;;;;;;13.99;100;98117.56;;;;
2021/08/29 22:39:21;;;;;;;6.5;4.8;;;;;;;14.17;100;98096.41;;;;
2021/08/29 22:49:15;;;;;;;6.3;4.5;;;;;;;14.16;100;98098.33;;;;
2021/08/29 22:59:15;;;;;;;7.9;5;;;;;;;14.09;100;98107.05;;;;
2021/08/29 23:09:15;;;;;;;6.4;5;;;;;;;14.03;100;98102.2;;;;
2021/08/29 23:19:15;;;;;;;7.1;4.6;;;;;;;13.88;100;98097.5;;;;
2021/08/29 23:29:15;;;;;;;8.8;5.1;;;;;;;13.86;100;98102.45;;;;
2021/08/29 23:39:11;;;;;;;7;4.5;;;;;;;13.82;100;98094.22;;;;
2021/08/29 23:49:11;;;;;;;6.4;5;;;;;;;13.67;100;98092.22;;;;
2021/08/29 23:59:10;;;;;;;7.8;5.8;;;;;;;13.63;100;98091.31;;;;
